createdAt,value
2022-10-19T00:01:18.910Z,10.60
2022-10-19T00:06:26.470Z,10.50
2022-10-19T00:08:57.010Z,10.50
2022-10-19T00:11:25.596Z,10.40
2022-10-19T00:13:57.497Z,10.40
2022-10-19T00:16:28.392Z,10.40
2022-10-19T00:18:58.324Z,10.40
2022-10-19T00:21:26.897Z,10.30
2022-10-19T00:23:55.312Z,10.30
2022-10-19T00:26:23.513Z,10.30
2022-10-19T00:28:55.651Z,10.20
2022-10-19T00:31:23.785Z,10.20
2022-10-19T00:33:52.307Z,10.20
2022-10-19T00:36:23.794Z,10.20
2022-10-19T00:38:53.385Z,10.20
2022-10-19T00:41:24.797Z,10.10
2022-10-19T00:43:58.091Z,10.10
2022-10-19T00:46:27.385Z,10.10
2022-10-19T00:49:01.381Z,10.10
2022-10-19T00:51:32.337Z,10.00
2022-10-19T00:54:04.055Z,10.00
2022-10-19T00:56:32.901Z,10.00
2022-10-19T00:59:05.293Z,10.00
2022-10-19T01:01:35.190Z,9.90
2022-10-19T01:04:04.909Z,9.90
2022-10-19T01:06:33.995Z,9.90
2022-10-19T01:09:01.912Z,9.80
2022-10-19T01:11:44.991Z,9.80
2022-10-19T01:14:32.658Z,9.80
2022-10-19T01:17:14.219Z,9.70
2022-10-19T01:20:42.517Z,9.70
2022-10-19T01:24:01.842Z,9.70
2022-10-19T01:27:26.367Z,9.60
2022-10-19T01:30:03.763Z,9.60
2022-10-19T01:32:43.132Z,9.50
2022-10-19T01:35:19.831Z,9.50
2022-10-19T01:37:54.203Z,9.50
2022-10-19T01:40:32.199Z,9.50
2022-10-19T01:43:05.376Z,9.40
2022-10-19T01:45:43.233Z,9.40
2022-10-19T01:48:18.162Z,9.40
2022-10-19T01:50:54.906Z,9.40
2022-10-19T01:53:26.509Z,9.40
2022-10-19T01:55:56.649Z,9.40
2022-10-19T01:58:29.841Z,9.30
2022-10-19T02:01:04.909Z,9.30
2022-10-19T02:03:35.079Z,9.30
2022-10-19T02:06:07.221Z,9.30
2022-10-19T02:08:44.233Z,9.30
2022-10-19T02:11:12.360Z,9.20
2022-10-19T02:13:42.375Z,9.20
2022-10-19T02:16:19.353Z,9.20
2022-10-19T02:18:52.955Z,9.20
2022-10-19T02:21:21.191Z,9.10
2022-10-19T02:23:51.807Z,9.10
2022-10-19T02:26:23.433Z,9.10
2022-10-19T02:28:51.922Z,9.10
2022-10-19T02:31:21.259Z,9.00
2022-10-19T02:33:49.383Z,9.00
2022-10-19T02:36:18.334Z,9.00
2022-10-19T02:38:46.389Z,9.00
2022-10-19T02:41:22.585Z,9.00
2022-10-19T02:43:56.902Z,8.90
2022-10-19T02:46:33.555Z,8.90
2022-10-19T02:49:04.692Z,8.90
2022-10-19T02:51:36.201Z,8.90
2022-10-19T02:54:07.659Z,8.80
2022-10-19T02:56:36.441Z,8.80
2022-10-19T02:59:05.242Z,8.80
2022-10-19T03:01:34.507Z,8.80
2022-10-19T03:04:02.505Z,8.80
2022-10-19T03:06:30.388Z,8.70
2022-10-19T03:08:58.293Z,8.70
2022-10-19T03:11:26.223Z,8.70
2022-10-19T03:13:54.123Z,8.70
2022-10-19T03:16:22.109Z,8.70
2022-10-19T03:18:51.977Z,8.70
2022-10-19T03:21:20.478Z,8.60
2022-10-19T03:23:48.533Z,8.60
2022-10-19T03:26:18.745Z,8.60
2022-10-19T03:28:46.717Z,8.60
2022-10-19T03:31:14.669Z,8.50
2022-10-19T03:33:42.621Z,8.50
2022-10-19T03:36:24.765Z,8.50
2022-10-19T03:38:53.743Z,8.50
2022-10-19T03:41:30.573Z,8.40
2022-10-19T03:46:31.561Z,8.40
2022-10-19T03:48:59.421Z,8.40
2022-10-19T03:51:31.455Z,8.40
2022-10-19T03:54:01.657Z,8.30
2022-10-19T03:56:31.907Z,8.30
2022-10-19T03:59:01.779Z,8.30
2022-10-19T04:01:34.058Z,8.30
2022-10-19T04:04:05.736Z,8.30
2022-10-19T04:06:37.288Z,8.20
2022-10-19T04:09:07.239Z,8.20
2022-10-19T04:11:35.930Z,8.20
2022-10-19T04:14:04.595Z,8.20
2022-10-19T04:16:36.332Z,8.20
2022-10-19T04:19:04.916Z,8.10
2022-10-19T04:21:37.010Z,8.10
2022-10-19T04:24:11.842Z,8.10
2022-10-19T04:26:43.166Z,8.10
2022-10-19T04:29:12.132Z,8.00
2022-10-19T04:31:41.052Z,8.00
2022-10-19T04:34:10.121Z,8.00
2022-10-19T04:36:39.774Z,8.00
2022-10-19T04:39:08.691Z,8.00
2022-10-19T04:41:38.715Z,8.00
2022-10-19T04:44:07.632Z,8.00
2022-10-19T04:46:35.833Z,7.90
2022-10-19T04:49:06.790Z,7.90
2022-10-19T04:51:35.497Z,7.90
2022-10-19T04:54:05.747Z,7.90
2022-10-19T04:56:34.031Z,7.80
2022-10-19T04:59:02.494Z,7.80
2022-10-19T05:01:32.272Z,7.70
2022-10-19T05:04:02.658Z,7.70
2022-10-19T05:06:32.568Z,7.60
2022-10-19T05:09:01.141Z,7.60
2022-10-19T05:11:30.402Z,7.60
2022-10-19T05:13:58.617Z,7.60
2022-10-19T05:16:26.780Z,7.60
2022-10-19T05:18:58.735Z,7.60
2022-10-19T05:21:28.741Z,7.60
2022-10-19T05:23:58.677Z,7.60
2022-10-19T05:26:30.105Z,7.60
2022-10-19T05:29:01.982Z,7.60
2022-10-19T05:31:32.892Z,7.60
2022-10-19T05:34:03.074Z,7.60
2022-10-19T05:36:35.110Z,7.60
2022-10-19T05:39:06.999Z,7.70
2022-10-19T05:41:36.715Z,7.70
2022-10-19T05:44:06.503Z,7.70
2022-10-19T05:46:35.469Z,7.70
2022-10-19T05:49:03.557Z,7.70
2022-10-19T05:51:31.543Z,7.70
2022-10-19T05:53:59.486Z,7.70
2022-10-19T05:56:30.758Z,7.70
2022-10-19T05:59:04.077Z,7.70
2022-10-19T06:01:33.723Z,7.70
2022-10-19T06:04:03.590Z,7.70
2022-10-19T06:06:32.600Z,7.70
2022-10-19T06:09:01.380Z,7.70
2022-10-19T06:11:33.658Z,7.70
2022-10-19T06:14:06.718Z,7.70
2022-10-19T06:16:35.873Z,7.70
2022-10-19T06:19:05.045Z,7.70
2022-10-19T06:21:34.716Z,7.80
2022-10-19T06:24:06.375Z,7.80
2022-10-19T06:26:35.806Z,7.80
2022-10-19T06:29:06.139Z,7.80
2022-10-19T06:31:38.328Z,7.80
2022-10-19T06:34:06.788Z,7.80
2022-10-19T06:36:35.451Z,7.90
2022-10-19T06:39:03.624Z,7.90
2022-10-19T06:41:34.093Z,7.90
2022-10-19T06:44:04.301Z,8.00
2022-10-19T06:46:32.541Z,7.90
2022-10-19T06:49:03.049Z,8.00
2022-10-19T06:51:33.929Z,8.00
2022-10-19T06:54:01.867Z,8.00
2022-10-19T06:56:29.864Z,8.00
2022-10-19T06:58:58.860Z,8.00
2022-10-19T07:01:28.199Z,8.10
2022-10-19T07:03:56.238Z,8.10
2022-10-19T07:06:24.736Z,8.10
2022-10-19T07:08:53.890Z,8.10
2022-10-19T07:11:23.306Z,8.20
2022-10-19T07:13:53.091Z,8.20
2022-10-19T07:16:21.928Z,8.20
2022-10-19T07:18:53.441Z,8.20
2022-10-19T07:21:23.824Z,8.20
2022-10-19T07:23:52.575Z,8.20
2022-10-19T07:26:23.868Z,8.30
2022-10-19T07:28:52.293Z,8.30
2022-10-19T07:31:23.750Z,8.40
2022-10-19T07:33:55.565Z,8.40
2022-10-19T07:36:24.791Z,8.40
2022-10-19T07:38:53.599Z,8.50
2022-10-19T07:41:24.613Z,8.50
2022-10-19T07:43:53.368Z,8.60
2022-10-19T07:46:25.303Z,8.60
2022-10-19T07:48:54.761Z,8.60
2022-10-19T07:51:23.849Z,8.70
2022-10-19T07:53:51.927Z,8.80
2022-10-19T07:56:23.101Z,8.80
2022-10-19T07:58:53.718Z,8.90
2022-10-19T08:01:24.193Z,8.90
2022-10-19T08:06:44.516Z,9.00
2022-10-19T08:09:27.649Z,9.10
2022-10-19T08:12:00.577Z,9.20
2022-10-19T08:14:28.902Z,9.20
2022-10-19T08:16:56.845Z,9.20
2022-10-19T08:19:26.091Z,9.30
2022-10-19T08:21:54.097Z,9.30
2022-10-19T08:24:22.481Z,9.30
2022-10-19T08:26:51.331Z,9.40
2022-10-19T08:29:21.407Z,9.40
2022-10-19T08:31:50.987Z,9.40
2022-10-19T08:34:18.989Z,9.50
2022-10-19T08:36:48.399Z,9.50
2022-10-19T08:39:17.749Z,9.60
2022-10-19T08:42:01.936Z,9.60
2022-10-19T08:44:52.883Z,9.60
2022-10-19T08:47:39.489Z,9.70
2022-10-19T08:50:20.169Z,9.80
2022-10-19T08:52:58.882Z,9.80
2022-10-19T08:55:41.012Z,9.80
2022-10-19T08:58:35.537Z,9.90
2022-10-19T09:01:12.544Z,10.00
2022-10-19T09:03:56.863Z,10.00
2022-10-19T09:06:32.929Z,10.10
2022-10-19T09:09:02.384Z,10.10
2022-10-19T09:11:38.241Z,10.20
2022-10-19T09:14:17.149Z,10.30
2022-10-19T09:16:46.207Z,10.30
2022-10-19T09:19:25.384Z,10.40
2022-10-19T09:21:59.169Z,10.40
2022-10-19T09:24:43.073Z,10.50
2022-10-19T09:27:22.178Z,10.60
2022-10-19T09:29:56.006Z,10.60
2022-10-19T09:32:32.228Z,10.70
2022-10-19T09:35:04.353Z,10.80
2022-10-19T09:37:40.341Z,10.90
2022-10-19T09:40:18.394Z,11.00
2022-10-19T09:42:46.358Z,11.00
2022-10-19T09:45:21.168Z,11.10
2022-10-19T09:47:50.067Z,11.20
2022-10-19T09:50:21.904Z,11.30
2022-10-19T09:52:51.900Z,11.40
2022-10-19T09:55:38.896Z,11.50
2022-10-19T09:58:19.525Z,11.60
2022-10-19T10:00:51.023Z,11.70
2022-10-19T10:03:29.676Z,11.80
2022-10-19T10:06:02.790Z,12.00
2022-10-19T10:08:35.373Z,12.10
2022-10-19T10:11:13.118Z,12.20
2022-10-19T10:13:49.028Z,12.40
2022-10-19T10:16:21.937Z,12.50
2022-10-19T10:18:57.711Z,12.60
2022-10-19T10:21:32.015Z,12.80
2022-10-19T10:24:05.436Z,12.90
2022-10-19T10:26:41.285Z,13.00
2022-10-19T10:29:21.862Z,13.20
2022-10-19T10:31:54.928Z,13.30
2022-10-19T10:34:49.428Z,13.40
2022-10-19T10:37:23.990Z,13.50
2022-10-19T10:39:57.692Z,13.60
2022-10-19T10:42:38.867Z,13.80
2022-10-19T10:45:20.300Z,13.80
2022-10-19T10:47:50.095Z,13.90
2022-10-19T10:50:23.415Z,14.10
2022-10-19T10:53:03.494Z,14.20
2022-10-19T10:55:33.448Z,14.30
2022-10-19T10:58:17.670Z,14.40
2022-10-19T11:00:47.608Z,14.50
2022-10-19T11:03:25.073Z,14.60
2022-10-19T11:05:58.197Z,14.60
2022-10-19T11:08:35.058Z,14.70
2022-10-19T11:11:15.502Z,14.80
2022-10-19T11:13:51.544Z,14.90
2022-10-19T11:16:24.847Z,15.00
2022-10-19T11:18:59.581Z,15.00
2022-10-19T11:21:38.694Z,15.00
2022-10-19T11:24:19.527Z,15.10
2022-10-19T11:27:12.598Z,15.10
2022-10-19T11:30:05.052Z,15.10
2022-10-19T11:32:59.082Z,15.10
2022-10-19T11:35:42.169Z,15.20
2022-10-19T11:38:30.970Z,15.20
2022-10-19T11:41:18.858Z,15.20
2022-10-19T11:44:16.375Z,15.30
2022-10-19T11:47:03.433Z,15.30
2022-10-19T11:49:49.164Z,15.40
2022-10-19T11:52:25.826Z,15.50
2022-10-19T11:55:06.062Z,15.50
2022-10-19T11:57:49.377Z,15.60
2022-10-19T12:00:38.031Z,15.60
2022-10-19T12:03:38.906Z,15.60
2022-10-19T12:06:18.643Z,15.60
2022-10-19T12:09:12.399Z,15.60
2022-10-19T12:11:58.956Z,15.60
2022-10-19T12:14:33.012Z,15.60
2022-10-19T12:17:09.046Z,15.50
2022-10-19T12:19:47.851Z,15.50
2022-10-19T12:22:22.979Z,15.50
2022-10-19T12:24:55.293Z,15.50
2022-10-19T12:27:33.394Z,15.50
2022-10-19T12:30:08.088Z,15.50
2022-10-19T12:32:53.527Z,15.50
2022-10-19T12:36:07.517Z,15.50
2022-10-19T12:38:59.755Z,15.50
2022-10-19T12:41:40.126Z,15.40
2022-10-19T12:44:38.629Z,15.40
2022-10-19T12:47:12.912Z,15.30
2022-10-19T12:49:50.071Z,15.30
2022-10-19T12:52:44.341Z,15.30
2022-10-19T12:55:30.731Z,15.30
2022-10-19T12:58:04.013Z,15.20
2022-10-19T13:00:35.225Z,15.20
2022-10-19T13:03:09.076Z,15.10
2022-10-19T13:05:37.669Z,15.10
2022-10-19T13:08:12.252Z,15.00
2022-10-19T13:10:42.550Z,15.00
2022-10-19T13:13:55.714Z,15.00
2022-10-19T13:16:41.584Z,14.90
2022-10-19T13:19:23.620Z,14.90
2022-10-19T13:22:22.359Z,14.90
2022-10-19T13:25:27.010Z,14.90
2022-10-19T13:28:22.975Z,14.80
2022-10-19T13:31:23.011Z,14.80
2022-10-19T13:33:56.228Z,14.80
2022-10-19T13:36:26.339Z,14.80
2022-10-19T13:39:13.529Z,14.80
2022-10-19T13:41:56.209Z,14.80
2022-10-19T13:44:35.336Z,14.80
2022-10-19T13:50:26.504Z,14.80
2022-10-19T13:53:23.534Z,14.80
2022-10-19T13:59:33.362Z,14.80
2022-10-19T14:03:00.131Z,14.80
2022-10-19T14:05:57.884Z,14.80
2022-10-19T14:09:13.272Z,14.80
2022-10-19T14:11:44.120Z,14.70
2022-10-19T14:14:20.385Z,14.80
2022-10-19T14:17:01.165Z,14.70
2022-10-19T14:19:41.844Z,14.70
2022-10-19T14:22:22.237Z,14.70
2022-10-19T14:24:50.207Z,14.70
2022-10-19T14:27:24.036Z,14.70
2022-10-19T14:29:55.604Z,14.70
2022-10-19T14:32:28.021Z,14.70
2022-10-19T14:37:37.954Z,14.70
2022-10-19T14:40:26.617Z,14.70
2022-10-19T14:42:58.198Z,14.70
2022-10-19T14:45:30.640Z,14.60
2022-10-19T14:48:02.982Z,14.60
2022-10-19T14:50:44.349Z,14.60
2022-10-19T14:53:35.013Z,14.60
2022-10-19T14:56:08.605Z,14.60
2022-10-19T14:58:42.330Z,14.50
2022-10-19T15:01:13.125Z,14.50
2022-10-19T15:03:44.728Z,14.50
2022-10-19T15:06:22.969Z,14.40
2022-10-19T15:11:31.960Z,14.40
2022-10-19T15:14:07.205Z,14.30
2022-10-19T15:16:51.797Z,14.30
2022-10-19T15:19:28.457Z,14.30
2022-10-19T15:22:16.077Z,14.30
2022-10-19T15:24:58.714Z,14.20
2022-10-19T15:27:38.513Z,14.20
2022-10-19T15:30:25.263Z,14.20
2022-10-19T15:33:10.662Z,14.10
2022-10-19T15:35:40.880Z,14.10
2022-10-19T15:38:26.914Z,14.10
2022-10-19T15:41:00.598Z,14.00
2022-10-19T15:43:38.794Z,14.00
2022-10-19T15:46:21.110Z,14.00
2022-10-19T15:48:55.186Z,13.90
2022-10-19T15:51:47.227Z,13.90
2022-10-19T15:54:18.872Z,13.90
2022-10-19T15:56:52.725Z,13.80
2022-10-19T15:59:23.740Z,13.80
2022-10-19T16:01:53.808Z,13.80
2022-10-19T16:04:25.293Z,13.70
2022-10-19T16:06:53.408Z,13.70
2022-10-19T16:09:22.982Z,13.70
2022-10-19T16:11:56.440Z,13.60
2022-10-19T16:14:26.177Z,13.60
2022-10-19T16:16:54.498Z,13.60
2022-10-19T16:19:22.478Z,13.60
2022-10-19T16:21:51.743Z,13.50
2022-10-19T16:24:19.635Z,13.50
2022-10-19T16:26:48.800Z,13.40
2022-10-19T16:29:16.714Z,13.40
2022-10-19T16:31:44.637Z,13.40
2022-10-19T16:34:12.543Z,13.30
2022-10-19T16:36:40.499Z,13.30
2022-10-19T16:39:09.932Z,13.30
2022-10-19T16:44:06.062Z,13.20
2022-10-19T16:46:34.049Z,13.10
2022-10-19T16:49:01.948Z,13.10
2022-10-19T16:51:36.668Z,13.10
2022-10-19T16:54:06.986Z,13.10
2022-10-19T16:56:37.385Z,13.00
2022-10-19T16:59:07.432Z,13.00
2022-10-19T17:01:36.570Z,12.90
2022-10-19T17:04:04.681Z,12.90
2022-10-19T17:06:34.377Z,12.90
2022-10-19T17:09:30.166Z,12.80
2022-10-19T17:11:51.955Z,12.80
2022-10-19T17:14:20.118Z,12.80
2022-10-19T17:16:48.105Z,12.70
2022-10-19T17:19:16.073Z,12.70
2022-10-19T17:21:44.138Z,12.60
2022-10-19T17:24:22.105Z,12.60
2022-10-19T17:26:54.262Z,12.60
2022-10-19T17:29:23.665Z,12.50
2022-10-19T17:31:51.814Z,12.50
2022-10-19T17:34:20.198Z,12.40
2022-10-19T17:36:48.957Z,12.40
2022-10-19T17:39:24.361Z,12.30
2022-10-19T17:41:57.509Z,12.30
2022-10-19T17:44:25.392Z,12.30
2022-10-19T17:46:53.304Z,12.20
2022-10-19T17:49:21.292Z,12.20
2022-10-19T17:51:49.289Z,12.20
2022-10-19T17:54:17.227Z,12.20
2022-10-19T17:56:45.820Z,12.10
2022-10-19T17:59:15.088Z,12.10
2022-10-19T18:01:43.259Z,12.10
2022-10-19T18:04:11.379Z,12.00
2022-10-19T18:06:40.038Z,12.00
2022-10-19T18:09:11.768Z,12.00
2022-10-19T18:11:43.430Z,12.00
2022-10-19T18:14:14.456Z,12.00
2022-10-19T18:16:46.292Z,12.00
2022-10-19T18:19:16.887Z,11.90
2022-10-19T18:21:47.687Z,11.90
2022-10-19T18:24:19.851Z,11.90
2022-10-19T18:26:49.591Z,11.90
2022-10-19T18:29:22.419Z,11.90
2022-10-19T18:31:52.540Z,11.80
2022-10-19T18:34:23.116Z,11.80
2022-10-19T18:36:52.420Z,11.80
2022-10-19T18:39:20.739Z,11.80
2022-10-19T18:41:53.967Z,11.80
2022-10-19T18:44:27.173Z,11.80
2022-10-19T18:46:57.912Z,11.70
2022-10-19T18:49:26.936Z,11.70
2022-10-19T18:51:56.177Z,11.70
2022-10-19T18:54:26.039Z,11.70
2022-10-19T18:56:54.050Z,11.70
2022-10-19T18:59:23.979Z,11.60
2022-10-19T19:01:52.259Z,11.60
2022-10-19T19:04:20.336Z,11.60
2022-10-19T19:06:49.343Z,11.60
2022-10-19T19:09:18.742Z,11.60
2022-10-19T19:11:49.995Z,11.50
2022-10-19T19:14:21.447Z,11.50
2022-10-19T19:16:51.025Z,11.50
2022-10-19T19:19:20.593Z,11.50
2022-10-19T19:21:49.747Z,11.50
2022-10-19T19:24:21.664Z,11.50
2022-10-19T19:26:53.388Z,11.50
2022-10-19T19:29:22.925Z,11.40
2022-10-19T19:31:53.566Z,11.40
2022-10-19T19:34:21.559Z,11.40
2022-10-19T19:36:49.768Z,11.40
2022-10-19T19:39:20.835Z,11.30
2022-10-19T19:41:49.886Z,11.30
2022-10-19T19:44:19.740Z,11.30
2022-10-19T19:46:50.616Z,11.30
2022-10-19T19:49:20.805Z,11.30
2022-10-19T19:51:50.410Z,11.20
2022-10-19T19:54:19.133Z,11.20
2022-10-19T19:56:47.126Z,11.20
2022-10-19T19:59:15.073Z,11.20
2022-10-19T20:01:43.253Z,11.10
2022-10-19T20:04:12.074Z,11.10
2022-10-19T20:06:44.388Z,11.00
2022-10-19T20:09:12.655Z,11.00
2022-10-19T20:11:42.696Z,11.00
2022-10-19T20:14:11.364Z,11.00
2022-10-19T20:16:39.331Z,10.90
2022-10-19T20:19:10.008Z,10.90
2022-10-19T20:21:38.926Z,10.90
2022-10-19T20:24:09.151Z,10.80
2022-10-19T20:26:37.512Z,10.80
2022-10-19T20:29:06.364Z,10.80
2022-10-19T20:31:39.339Z,10.80
2022-10-19T20:34:13.647Z,10.80
2022-10-19T20:36:41.975Z,10.70
2022-10-19T20:39:11.631Z,10.70
2022-10-19T20:41:39.527Z,10.70
2022-10-19T20:44:07.474Z,10.70
2022-10-19T20:46:36.853Z,10.70
2022-10-19T20:49:07.218Z,10.60
2022-10-19T20:51:37.754Z,10.60
2022-10-19T20:54:09.029Z,10.60
2022-10-19T20:56:41.469Z,10.60
2022-10-19T20:59:12.954Z,10.50
2022-10-19T21:01:43.713Z,10.50
2022-10-19T21:04:14.273Z,10.50
2022-10-19T21:06:44.904Z,10.50
2022-10-19T21:09:14.973Z,10.40
2022-10-19T21:11:47.172Z,10.40
2022-10-19T21:14:18.016Z,10.40
2022-10-19T21:16:45.930Z,10.30
2022-10-19T21:19:19.825Z,10.30
2022-10-19T21:21:51.754Z,10.30
2022-10-19T21:24:23.212Z,10.30
2022-10-19T21:26:52.938Z,10.30
2022-10-19T21:29:21.235Z,10.20
2022-10-19T21:31:53.250Z,10.20
2022-10-19T21:34:24.300Z,10.20
2022-10-19T21:36:53.139Z,10.20
2022-10-19T21:39:21.846Z,10.10
2022-10-19T21:41:51.975Z,10.10
2022-10-19T21:44:22.856Z,10.10
2022-10-19T21:46:51.377Z,10.00
2022-10-19T21:49:19.444Z,10.00
2022-10-19T21:51:50.375Z,10.00
2022-10-19T21:54:21.880Z,10.00
2022-10-19T21:56:50.139Z,10.00
2022-10-19T21:59:19.784Z,9.90
2022-10-19T22:01:47.683Z,9.90
2022-10-19T22:04:18.889Z,9.90
2022-10-19T22:06:47.085Z,9.90
2022-10-19T22:09:19.310Z,9.80
2022-10-19T22:11:48.276Z,9.80
2022-10-19T22:14:18.961Z,9.80
2022-10-19T22:16:47.024Z,9.80
2022-10-19T22:19:15.092Z,9.80
2022-10-19T22:21:43.057Z,9.80
2022-10-19T22:24:15.370Z,9.80
2022-10-19T22:26:46.914Z,9.80
2022-10-19T22:29:15.318Z,9.70
2022-10-19T22:31:45.576Z,9.70
2022-10-19T22:34:17.268Z,9.80
2022-10-19T22:36:45.961Z,9.70
2022-10-19T22:39:14.996Z,9.70
2022-10-19T22:41:46.108Z,9.70
2022-10-19T22:44:17.149Z,9.70
2022-10-19T22:47:04.097Z,9.70
2022-10-19T22:49:32.999Z,9.70
2022-10-19T22:52:10.065Z,9.70
2022-10-19T22:54:38.047Z,9.70
2022-10-19T22:57:06.672Z,9.60
2022-10-19T22:59:34.852Z,9.60
2022-10-19T23:02:04.303Z,9.60
2022-10-19T23:04:32.407Z,9.60
2022-10-19T23:07:00.409Z,9.60
2022-10-19T23:09:28.355Z,9.60
2022-10-19T23:11:56.257Z,9.50
2022-10-19T23:14:24.312Z,9.50
2022-10-19T23:16:52.205Z,9.50
2022-10-19T23:19:21.746Z,9.50
2022-10-19T23:21:49.634Z,9.40
2022-10-19T23:24:17.584Z,9.50
2022-10-19T23:26:45.469Z,9.40
2022-10-19T23:29:13.368Z,9.40
2022-10-19T23:31:41.328Z,9.40
2022-10-19T23:34:09.225Z,9.40
2022-10-19T23:36:38.501Z,9.40
2022-10-19T23:39:06.439Z,9.40
2022-10-19T23:41:34.492Z,9.40
2022-10-19T23:44:02.445Z,9.30
2022-10-19T23:46:30.448Z,9.30
2022-10-19T23:48:58.348Z,9.30
2022-10-19T23:51:26.271Z,9.30
2022-10-19T23:53:55.544Z,9.30
2022-10-19T23:56:27.129Z,9.30
2022-10-19T23:58:56.610Z,9.20
